EmailTwitter


Observations de surface / Québec / CYMX

Régions: Québec | Canada | États-Unis | Europe | France | UK | Ailleurs
Station
Affichage
Infos & localisation pour CYMX | Aide pour décoder les METARs

Observations prises le 2018-01-23 à 05H28 UTC à MONTREAL MIRABEL, QB (CYMX)

Etat du ciel: couvert.

Obstacle(s) à la visibilité: faible neige.

Température: -8.0 Celsius

Point de rosée: -9.0 Celsius

Humidité relative: 93%

Facteur vent: -13.

Vents: Nord-est à 9 km/h ou 5 noeuds.

Pression au niveau moyen de la mer: 101.51 kilopascals.

Calage altimétrique: 101.46 kilopascals ou 29.96 pouces de mercure.

Visibilité horizontale: 1.50 milles terrestres ou 2.40 kilomètres.

Hauteur du plafond: 427 mètres ( 1400 pieds ).

Observation METAR:

CYMX 230528Z 04005KT 340V080 1 1/2SM -SNPL OVC014 M08/M09 A2996 RMK SN2SC6

SLP151=